sensor_id;sensor_type;location;lat;lon;timestamp;P1;durP1;ratioP1;P2;durP2;ratioP2
2892;SDS011;1456;51.840;12.184;2022-11-20T00:01:28;0.40;;;0.40;;
2892;SDS011;1456;51.840;12.184;2022-11-20T00:03:54;0.70;;;0.70;;
2892;SDS011;1456;51.840;12.184;2022-11-20T00:06:24;1.47;;;1.47;;
2892;SDS011;1456;51.840;12.184;2022-11-20T00:08:50;0.50;;;0.50;;
2892;SDS011;1456;51.840;12.184;2022-11-20T00:11:19;0.60;;;0.60;;
2892;SDS011;1456;51.840;12.184;2022-11-20T00:13:47;0.50;;;0.50;;
2892;SDS011;1456;51.840;12.184;2022-11-20T00:16:15;2.57;;;1.33;;
2892;SDS011;1456;51.840;12.184;2022-11-20T00:18:43;0.50;;;0.50;;
2892;SDS011;1456;51.840;12.184;2022-11-20T00:21:13;1.10;;;1.10;;
2892;SDS011;1456;51.840;12.184;2022-11-20T00:23:45;1.43;;;0.60;;
2892;SDS011;1456;51.840;12.184;2022-11-20T00:26:15;0.50;;;0.50;;
2892;SDS011;1456;51.840;12.184;2022-11-20T00:28:43;0.50;;;0.50;;
2892;SDS011;1456;51.840;12.184;2022-11-20T00:31:15;1.00;;;1.00;;
2892;SDS011;1456;51.840;12.184;2022-11-20T00:33:42;0.43;;;0.43;;
2892;SDS011;1456;51.840;12.184;2022-11-20T00:36:09;0.80;;;0.50;;
2892;SDS011;1456;51.840;12.184;2022-11-20T00:38:36;1.10;;;1.00;;
2892;SDS011;1456;51.840;12.184;2022-11-20T00:41:03;0.50;;;0.50;;
2892;SDS011;1456;51.840;12.184;2022-11-20T00:43:31;0.70;;;0.70;;
2892;SDS011;1456;51.840;12.184;2022-11-20T00:45:59;0.60;;;0.60;;
2892;SDS011;1456;51.840;12.184;2022-11-20T00:48:26;1.07;;;1.07;;
2892;SDS011;1456;51.840;12.184;2022-11-20T00:50:52;0.87;;;0.87;;
2892;SDS011;1456;51.840;12.184;2022-11-20T00:53:18;0.70;;;0.70;;
2892;SDS011;1456;51.840;12.184;2022-11-20T00:55:55;1.80;;;1.80;;
2892;SDS011;1456;51.840;12.184;2022-11-20T00:58:29;0.70;;;0.70;;
2892;SDS011;1456;51.840;12.184;2022-11-20T01:01:01;0.97;;;0.90;;
2892;SDS011;1456;51.840;12.184;2022-11-20T01:03:30;0.80;;;0.80;;
2892;SDS011;1456;51.840;12.184;2022-11-20T01:06:00;0.80;;;0.70;;
2892;SDS011;1456;51.840;12.184;2022-11-20T01:08:32;0.80;;;0.80;;
2892;SDS011;1456;51.840;12.184;2022-11-20T01:11:02;0.90;;;0.90;;
2892;SDS011;1456;51.840;12.184;2022-11-20T01:13:30;1.53;;;1.00;;
2892;SDS011;1456;51.840;12.184;2022-11-20T01:18:32;0.80;;;0.80;;
2892;SDS011;1456;51.840;12.184;2022-11-20T01:21:05;0.60;;;0.60;;
2892;SDS011;1456;51.840;12.184;2022-11-20T01:23:37;0.70;;;0.70;;
2892;SDS011;1456;51.840;12.184;2022-11-20T01:26:04;2.00;;;0.90;;
2892;SDS011;1456;51.840;12.184;2022-11-20T01:28:35;0.50;;;0.50;;
2892;SDS011;1456;51.840;12.184;2022-11-20T01:31:02;1.13;;;1.13;;
2892;SDS011;1456;51.840;12.184;2022-11-20T01:33:59;0.50;;;0.50;;
2892;SDS011;1456;51.840;12.184;2022-11-20T01:36:27;0.50;;;0.50;;
2892;SDS011;1456;51.840;12.184;2022-11-20T01:38:56;0.83;;;0.83;;
2892;SDS011;1456;51.840;12.184;2022-11-20T01:41:23;0.80;;;0.80;;
2892;SDS011;1456;51.840;12.184;2022-11-20T01:44:10;0.60;;;0.60;;
2892;SDS011;1456;51.840;12.184;2022-11-20T01:46:42;0.47;;;0.47;;
2892;SDS011;1456;51.840;12.184;2022-11-20T01:49:34;1.20;;;1.13;;
2892;SDS011;1456;51.840;12.184;2022-11-20T01:55:09;0.40;;;0.40;;
2892;SDS011;1456;51.840;12.184;2022-11-20T01:57:42;0.50;;;0.50;;
2892;SDS011;1456;51.840;12.184;2022-11-20T02:00:11;0.60;;;0.60;;
2892;SDS011;1456;51.840;12.184;2022-11-20T02:02:41;2.70;;;2.50;;
2892;SDS011;1456;51.840;12.184;2022-11-20T02:05:19;1.07;;;1.07;;
2892;SDS011;1456;51.840;12.184;2022-11-20T02:07:57;0.50;;;0.50;;
2892;SDS011;1456;51.840;12.184;2022-11-20T02:10:24;0.77;;;0.77;;
2892;SDS011;1456;51.840;12.184;2022-11-20T02:12:50;1.00;;;0.60;;
2892;SDS011;1456;51.840;12.184;2022-11-20T02:15:34;0.57;;;0.57;;
2892;SDS011;1456;51.840;12.184;2022-11-20T02:18:00;0.40;;;0.40;;
2892;SDS011;1456;51.840;12.184;2022-11-20T02:20:30;2.30;;;2.20;;
2892;SDS011;1456;51.840;12.184;2022-11-20T02:22:57;0.40;;;0.40;;
2892;SDS011;1456;51.840;12.184;2022-11-20T02:25:28;1.83;;;0.70;;
2892;SDS011;1456;51.840;12.184;2022-11-20T02:27:59;0.60;;;0.60;;
2892;SDS011;1456;51.840;12.184;2022-11-20T02:30:25;0.80;;;0.80;;
2892;SDS011;1456;51.840;12.184;2022-11-20T02:32:50;1.43;;;1.33;;
2892;SDS011;1456;51.840;12.184;2022-11-20T02:37:51;0.40;;;0.40;;
2892;SDS011;1456;51.840;12.184;2022-11-20T02:40:19;0.93;;;0.93;;
2892;SDS011;1456;51.840;12.184;2022-11-20T02:42:45;2.33;;;1.67;;
2892;SDS011;1456;51.840;12.184;2022-11-20T02:45:11;0.40;;;0.40;;
2892;SDS011;1456;51.840;12.184;2022-11-20T02:47:37;1.13;;;0.80;;
2892;SDS011;1456;51.840;12.184;2022-11-20T02:50:03;0.90;;;0.70;;
2892;SDS011;1456;51.840;12.184;2022-11-20T02:52:30;0.40;;;0.40;;
2892;SDS011;1456;51.840;12.184;2022-11-20T02:54:56;1.47;;;1.43;;
2892;SDS011;1456;51.840;12.184;2022-11-20T02:57:22;5.17;;;1.20;;
2892;SDS011;1456;51.840;12.184;2022-11-20T02:59:48;0.50;;;0.50;;
2892;SDS011;1456;51.840;12.184;2022-11-20T03:02:14;0.53;;;0.53;;
2892;SDS011;1456;51.840;12.184;2022-11-20T03:04:39;0.50;;;0.50;;
2892;SDS011;1456;51.840;12.184;2022-11-20T03:07:05;0.97;;;0.97;;
2892;SDS011;1456;51.840;12.184;2022-11-20T03:09:32;0.40;;;0.40;;
2892;SDS011;1456;51.840;12.184;2022-11-20T03:11:58;0.50;;;0.50;;
2892;SDS011;1456;51.840;12.184;2022-11-20T03:14:23;0.47;;;0.47;;
2892;SDS011;1456;51.840;12.184;2022-11-20T03:16:49;2.30;;;1.20;;
2892;SDS011;1456;51.840;12.184;2022-11-20T03:19:14;1.07;;;1.07;;
2892;SDS011;1456;51.840;12.184;2022-11-20T03:21:40;0.70;;;0.70;;
2892;SDS011;1456;51.840;12.184;2022-11-20T03:24:06;0.70;;;0.70;;
2892;SDS011;1456;51.840;12.184;2022-11-20T03:26:32;0.60;;;0.60;;
2892;SDS011;1456;51.840;12.184;2022-11-20T03:28:58;0.50;;;0.50;;
2892;SDS011;1456;51.840;12.184;2022-11-20T03:31:28;1.80;;;1.77;;
2892;SDS011;1456;51.840;12.184;2022-11-20T03:33:57;1.07;;;1.07;;
2892;SDS011;1456;51.840;12.184;2022-11-20T03:36:24;0.60;;;0.60;;
2892;SDS011;1456;51.840;12.184;2022-11-20T03:38:52;0.40;;;0.40;;
2892;SDS011;1456;51.840;12.184;2022-11-20T03:41:27;0.80;;;0.80;;
2892;SDS011;1456;51.840;12.184;2022-11-20T03:44:02;2.60;;;2.40;;
2892;SDS011;1456;51.840;12.184;2022-11-20T03:46:29;0.70;;;0.70;;
2892;SDS011;1456;51.840;12.184;2022-11-20T03:48:56;0.97;;;0.77;;
2892;SDS011;1456;51.840;12.184;2022-11-20T03:51:24;0.40;;;0.40;;
2892;SDS011;1456;51.840;12.184;2022-11-20T03:53:51;2.43;;;2.33;;
2892;SDS011;1456;51.840;12.184;2022-11-20T03:56:19;1.23;;;0.90;;
2892;SDS011;1456;51.840;12.184;2022-11-20T03:58:50;1.10;;;1.10;;
2892;SDS011;1456;51.840;12.184;2022-11-20T04:01:17;3.80;;;1.50;;
2892;SDS011;1456;51.840;12.184;2022-11-20T04:03:44;1.03;;;1.03;;
2892;SDS011;1456;51.840;12.184;2022-11-20T04:06:11;0.50;;;0.50;;
2892;SDS011;1456;51.840;12.184;2022-11-20T04:08:42;0.50;;;0.50;;
2892;SDS011;1456;51.840;12.184;2022-11-20T04:11:09;1.97;;;1.27;;
2892;SDS011;1456;51.840;12.184;2022-11-20T04:13:42;0.50;;;0.50;;
2892;SDS011;1456;51.840;12.184;2022-11-20T04:16:11;0.40;;;0.40;;
2892;SDS011;1456;51.840;12.184;2022-11-20T04:18:37;0.40;;;0.40;;
2892;SDS011;1456;51.840;12.184;2022-11-20T04:21:03;1.07;;;0.97;;
2892;SDS011;1456;51.840;12.184;2022-11-20T04:23:30;1.00;;;1.00;;
2892;SDS011;1456;51.840;12.184;2022-11-20T04:26:07;1.50;;;1.10;;
2892;SDS011;1456;51.840;12.184;2022-11-20T04:28:34;0.40;;;0.40;;
2892;SDS011;1456;51.840;12.184;2022-11-20T04:31:06;0.67;;;0.67;;
2892;SDS011;1456;51.840;12.184;2022-11-20T04:33:34;0.50;;;0.50;;
2892;SDS011;1456;51.840;12.184;2022-11-20T04:36:11;0.80;;;0.80;;
2892;SDS011;1456;51.840;12.184;2022-11-20T04:38:51;0.60;;;0.60;;
2892;SDS011;1456;51.840;12.184;2022-11-20T04:41:25;0.50;;;0.50;;
2892;SDS011;1456;51.840;12.184;2022-11-20T04:43:53;0.50;;;0.50;;
2892;SDS011;1456;51.840;12.184;2022-11-20T04:46:25;1.03;;;0.60;;
2892;SDS011;1456;51.840;12.184;2022-11-20T04:48:51;1.43;;;1.33;;
2892;SDS011;1456;51.840;12.184;2022-11-20T04:51:17;1.00;;;1.00;;
2892;SDS011;1456;51.840;12.184;2022-11-20T04:53:44;1.17;;;1.10;;
2892;SDS011;1456;51.840;12.184;2022-11-20T04:56:10;0.60;;;0.60;;
2892;SDS011;1456;51.840;12.184;2022-11-20T04:58:37;0.40;;;0.40;;
2892;SDS011;1456;51.840;12.184;2022-11-20T05:01:08;0.93;;;0.93;;
2892;SDS011;1456;51.840;12.184;2022-11-20T05:03:38;0.60;;;0.60;;
2892;SDS011;1456;51.840;12.184;2022-11-20T05:06:06;1.03;;;1.03;;
2892;SDS011;1456;51.840;12.184;2022-11-20T05:08:33;2.87;;;1.83;;
2892;SDS011;1456;51.840;12.184;2022-11-20T05:11:03;1.20;;;1.10;;
2892;SDS011;1456;51.840;12.184;2022-11-20T05:13:39;0.70;;;0.70;;
2892;SDS011;1456;51.840;12.184;2022-11-20T05:16:06;0.83;;;0.83;;
2892;SDS011;1456;51.840;12.184;2022-11-20T05:18:34;0.67;;;0.60;;
2892;SDS011;1456;51.840;12.184;2022-11-20T05:21:00;0.50;;;0.50;;
2892;SDS011;1456;51.840;12.184;2022-11-20T05:23:26;1.00;;;0.70;;
2892;SDS011;1456;51.840;12.184;2022-11-20T05:25:54;0.80;;;0.80;;
2892;SDS011;1456;51.840;12.184;2022-11-20T05:28:20;0.50;;;0.50;;
2892;SDS011;1456;51.840;12.184;2022-11-20T05:30:46;2.57;;;1.27;;
2892;SDS011;1456;51.840;12.184;2022-11-20T05:33:12;0.50;;;0.50;;
2892;SDS011;1456;51.840;12.184;2022-11-20T05:35:40;1.33;;;0.60;;
2892;SDS011;1456;51.840;12.184;2022-11-20T05:38:07;0.40;;;0.40;;
2892;SDS011;1456;51.840;12.184;2022-11-20T05:40:33;0.60;;;0.60;;
2892;SDS011;1456;51.840;12.184;2022-11-20T05:43:00;0.43;;;0.43;;
2892;SDS011;1456;51.840;12.184;2022-11-20T05:45:26;0.50;;;0.50;;
2892;SDS011;1456;51.840;12.184;2022-11-20T05:47:51;0.40;;;0.40;;
2892;SDS011;1456;51.840;12.184;2022-11-20T05:50:17;1.03;;;1.03;;
2892;SDS011;1456;51.840;12.184;2022-11-20T05:52:43;0.60;;;0.60;;
2892;SDS011;1456;51.840;12.184;2022-11-20T05:55:08;0.60;;;0.60;;
2892;SDS011;1456;51.840;12.184;2022-11-20T05:57:34;0.60;;;0.60;;
2892;SDS011;1456;51.840;12.184;2022-11-20T06:00:00;0.53;;;0.53;;
2892;SDS011;1456;51.840;12.184;2022-11-20T06:02:26;0.50;;;0.50;;
2892;SDS011;1456;51.840;12.184;2022-11-20T06:07:22;0.80;;;0.80;;
2892;SDS011;1456;51.840;12.184;2022-11-20T06:09:47;0.80;;;0.73;;
2892;SDS011;1456;51.840;12.184;2022-11-20T06:12:13;0.93;;;0.90;;
2892;SDS011;1456;51.840;12.184;2022-11-20T06:14:38;0.50;;;0.50;;
2892;SDS011;1456;51.840;12.184;2022-11-20T06:17:04;1.23;;;1.13;;
2892;SDS011;1456;51.840;12.184;2022-11-20T06:19:30;1.17;;;1.07;;
2892;SDS011;1456;51.840;12.184;2022-11-20T06:21:55;1.13;;;1.13;;
2892;SDS011;1456;51.840;12.184;2022-11-20T06:24:21;1.00;;;1.00;;
2892;SDS011;1456;51.840;12.184;2022-11-20T06:26:47;3.80;;;1.47;;
2892;SDS011;1456;51.840;12.184;2022-11-20T06:29:13;1.60;;;1.60;;
2892;SDS011;1456;51.840;12.184;2022-11-20T06:31:40;1.00;;;1.00;;
2892;SDS011;1456;51.840;12.184;2022-11-20T06:34:09;0.60;;;0.60;;
2892;SDS011;1456;51.840;12.184;2022-11-20T06:36:36;0.60;;;0.50;;
2892;SDS011;1456;51.840;12.184;2022-11-20T06:39:02;0.50;;;0.50;;
2892;SDS011;1456;51.840;12.184;2022-11-20T06:41:29;0.40;;;0.40;;
2892;SDS011;1456;51.840;12.184;2022-11-20T06:43:54;0.40;;;0.40;;
2892;SDS011;1456;51.840;12.184;2022-11-20T06:46:21;0.50;;;0.50;;
2892;SDS011;1456;51.840;12.184;2022-11-20T06:48:47;0.80;;;0.80;;
2892;SDS011;1456;51.840;12.184;2022-11-20T06:51:15;0.80;;;0.80;;
2892;SDS011;1456;51.840;12.184;2022-11-20T06:53:41;0.57;;;0.57;;
2892;SDS011;1456;51.840;12.184;2022-11-20T06:56:07;0.50;;;0.50;;
2892;SDS011;1456;51.840;12.184;2022-11-20T06:58:33;0.77;;;0.77;;
2892;SDS011;1456;51.840;12.184;2022-11-20T07:01:00;0.50;;;0.50;;
2892;SDS011;1456;51.840;12.184;2022-11-20T07:03:27;0.80;;;0.80;;
2892;SDS011;1456;51.840;12.184;2022-11-20T07:05:56;0.83;;;0.67;;
2892;SDS011;1456;51.840;12.184;2022-11-20T07:08:23;0.73;;;0.73;;
2892;SDS011;1456;51.840;12.184;2022-11-20T07:10:49;0.60;;;0.60;;
2892;SDS011;1456;51.840;12.184;2022-11-20T07:13:15;4.50;;;1.97;;
2892;SDS011;1456;51.840;12.184;2022-11-20T07:15:40;0.50;;;0.50;;
2892;SDS011;1456;51.840;12.184;2022-11-20T07:18:06;0.40;;;0.40;;
2892;SDS011;1456;51.840;12.184;2022-11-20T07:20:32;0.60;;;0.60;;
2892;SDS011;1456;51.840;12.184;2022-11-20T07:22:57;0.67;;;0.67;;
2892;SDS011;1456;51.840;12.184;2022-11-20T07:25:25;1.47;;;1.10;;
2892;SDS011;1456;51.840;12.184;2022-11-20T07:27:51;0.53;;;0.53;;
2892;SDS011;1456;51.840;12.184;2022-11-20T07:30:17;2.77;;;2.67;;
2892;SDS011;1456;51.840;12.184;2022-11-20T07:32:46;1.20;;;1.20;;
2892;SDS011;1456;51.840;12.184;2022-11-20T07:35:12;2.17;;;2.07;;
2892;SDS011;1456;51.840;12.184;2022-11-20T07:37:39;2.97;;;2.77;;
2892;SDS011;1456;51.840;12.184;2022-11-20T07:40:06;0.40;;;0.40;;
2892;SDS011;1456;51.840;12.184;2022-11-20T07:42:32;0.67;;;0.67;;
2892;SDS011;1456;51.840;12.184;2022-11-20T07:44:57;0.70;;;0.50;;
2892;SDS011;1456;51.840;12.184;2022-11-20T07:47:23;1.43;;;1.03;;
2892;SDS011;1456;51.840;12.184;2022-11-20T07:49:49;0.40;;;0.40;;
2892;SDS011;1456;51.840;12.184;2022-11-20T07:52:15;1.27;;;1.27;;
2892;SDS011;1456;51.840;12.184;2022-11-20T07:54:41;1.33;;;1.27;;
2892;SDS011;1456;51.840;12.184;2022-11-20T07:57:06;4.03;;;1.03;;
2892;SDS011;1456;51.840;12.184;2022-11-20T07:59:32;0.73;;;0.73;;
2892;SDS011;1456;51.840;12.184;2022-11-20T08:01:58;1.10;;;1.10;;
2892;SDS011;1456;51.840;12.184;2022-11-20T08:04:23;2.97;;;2.77;;
2892;SDS011;1456;51.840;12.184;2022-11-20T08:06:49;3.40;;;2.20;;
2892;SDS011;1456;51.840;12.184;2022-11-20T08:09:16;0.60;;;0.50;;
2892;SDS011;1456;51.840;12.184;2022-11-20T08:11:43;1.23;;;1.23;;
2892;SDS011;1456;51.840;12.184;2022-11-20T08:14:27;1.23;;;1.23;;
2892;SDS011;1456;51.840;12.184;2022-11-20T08:16:53;1.07;;;0.70;;
2892;SDS011;1456;51.840;12.184;2022-11-20T08:19:19;1.60;;;1.50;;
2892;SDS011;1456;51.840;12.184;2022-11-20T08:21:45;0.53;;;0.53;;
2892;SDS011;1456;51.840;12.184;2022-11-20T08:24:11;0.77;;;0.40;;
2892;SDS011;1456;51.840;12.184;2022-11-20T08:26:37;1.03;;;1.00;;
2892;SDS011;1456;51.840;12.184;2022-11-20T08:29:04;1.03;;;1.03;;
2892;SDS011;1456;51.840;12.184;2022-11-20T08:31:30;0.87;;;0.87;;
2892;SDS011;1456;51.840;12.184;2022-11-20T08:33:57;1.23;;;1.23;;
2892;SDS011;1456;51.840;12.184;2022-11-20T08:36:23;1.23;;;1.23;;
2892;SDS011;1456;51.840;12.184;2022-11-20T08:38:50;2.87;;;1.63;;
2892;SDS011;1456;51.840;12.184;2022-11-20T08:41:21;3.80;;;2.33;;
2892;SDS011;1456;51.840;12.184;2022-11-20T08:44:00;1.40;;;1.40;;
2892;SDS011;1456;51.840;12.184;2022-11-20T08:46:32;0.37;;;0.37;;
2892;SDS011;1456;51.840;12.184;2022-11-20T08:49:04;1.43;;;1.10;;
2892;SDS011;1456;51.840;12.184;2022-11-20T08:51:32;2.10;;;2.00;;
2892;SDS011;1456;51.840;12.184;2022-11-20T08:53:58;1.53;;;1.43;;
2892;SDS011;1456;51.840;12.184;2022-11-20T08:56:24;1.60;;;1.43;;
2892;SDS011;1456;51.840;12.184;2022-11-20T08:58:50;3.13;;;1.50;;
2892;SDS011;1456;51.840;12.184;2022-11-20T09:01:17;1.87;;;1.73;;
2892;SDS011;1456;51.840;12.184;2022-11-20T09:03:43;0.60;;;0.60;;
2892;SDS011;1456;51.840;12.184;2022-11-20T09:06:10;0.87;;;0.87;;
2892;SDS011;1456;51.840;12.184;2022-11-20T09:08:35;0.40;;;0.40;;
2892;SDS011;1456;51.840;12.184;2022-11-20T09:11:01;0.80;;;0.80;;
2892;SDS011;1456;51.840;12.184;2022-11-20T09:13:27;2.30;;;1.77;;
2892;SDS011;1456;51.840;12.184;2022-11-20T09:15:58;3.67;;;2.90;;
2892;SDS011;1456;51.840;12.184;2022-11-20T09:18:26;1.23;;;1.23;;
2892;SDS011;1456;51.840;12.184;2022-11-20T09:20:58;0.50;;;0.50;;
2892;SDS011;1456;51.840;12.184;2022-11-20T09:23:24;1.53;;;0.80;;
2892;SDS011;1456;51.840;12.184;2022-11-20T09:25:51;0.40;;;0.40;;
2892;SDS011;1456;51.840;12.184;2022-11-20T09:28:17;0.87;;;0.77;;
2892;SDS011;1456;51.840;12.184;2022-11-20T09:30:44;0.50;;;0.50;;
2892;SDS011;1456;51.840;12.184;2022-11-20T09:33:10;0.50;;;0.50;;
2892;SDS011;1456;51.840;12.184;2022-11-20T09:35:36;0.50;;;0.50;;
2892;SDS011;1456;51.840;12.184;2022-11-20T09:38:04;0.50;;;0.50;;
2892;SDS011;1456;51.840;12.184;2022-11-20T09:40:31;3.70;;;2.63;;
2892;SDS011;1456;51.840;12.184;2022-11-20T09:48:36;0.40;;;0.40;;
2892;SDS011;1456;51.840;12.184;2022-11-20T09:56:53;0.50;;;0.50;;
2892;SDS011;1456;51.840;12.184;2022-11-20T10:05:00;0.50;;;0.50;;
2892;SDS011;1456;51.840;12.184;2022-11-20T10:07:42;0.93;;;0.80;;
2892;SDS011;1456;51.840;12.184;2022-11-20T10:10:16;0.63;;;0.63;;
2892;SDS011;1456;51.840;12.184;2022-11-20T10:18:54;0.40;;;0.40;;
2892;SDS011;1456;51.840;12.184;2022-11-20T10:21:34;0.77;;;0.77;;
2892;SDS011;1456;51.840;12.184;2022-11-20T10:24:24;1.03;;;1.03;;
2892;SDS011;1456;51.840;12.184;2022-11-20T10:30:09;0.60;;;0.60;;
2892;SDS011;1456;51.840;12.184;2022-11-20T10:32:38;3.00;;;1.47;;
2892;SDS011;1456;51.840;12.184;2022-11-20T10:37:52;1.00;;;1.00;;
2892;SDS011;1456;51.840;12.184;2022-11-20T10:40:27;1.37;;;1.37;;
2892;SDS011;1456;51.840;12.184;2022-11-20T10:45:57;0.77;;;0.77;;
2892;SDS011;1456;51.840;12.184;2022-11-20T10:48:38;1.00;;;1.00;;
2892;SDS011;1456;51.840;12.184;2022-11-20T11:01:42;1.00;;;1.00;;
2892;SDS011;1456;51.840;12.184;2022-11-20T11:04:15;1.20;;;1.20;;
2892;SDS011;1456;51.840;12.184;2022-11-20T11:06:46;2.23;;;2.23;;
2892;SDS011;1456;51.840;12.184;2022-11-20T11:09:19;1.60;;;1.60;;
2892;SDS011;1456;51.840;12.184;2022-11-20T11:11:55;1.93;;;1.93;;
2892;SDS011;1456;51.840;12.184;2022-11-20T11:14:23;3.33;;;3.23;;
2892;SDS011;1456;51.840;12.184;2022-11-20T11:16:51;1.50;;;1.50;;
2892;SDS011;1456;51.840;12.184;2022-11-20T11:19:19;1.10;;;1.10;;
2892;SDS011;1456;51.840;12.184;2022-11-20T11:21:51;1.73;;;1.73;;
2892;SDS011;1456;51.840;12.184;2022-11-20T11:24:20;2.80;;;2.80;;
2892;SDS011;1456;51.840;12.184;2022-11-20T11:26:59;3.53;;;3.33;;
2892;SDS011;1456;51.840;12.184;2022-11-20T11:29:31;2.57;;;2.57;;
2892;SDS011;1456;51.840;12.184;2022-11-20T11:32:04;3.57;;;3.57;;
2892;SDS011;1456;51.840;12.184;2022-11-20T11:34:36;12.03;;;4.93;;
2892;SDS011;1456;51.840;12.184;2022-11-20T11:37:02;2.97;;;2.97;;
2892;SDS011;1456;51.840;12.184;2022-11-20T11:39:30;3.47;;;3.47;;
2892;SDS011;1456;51.840;12.184;2022-11-20T11:41:58;4.87;;;4.77;;
2892;SDS011;1456;51.840;12.184;2022-11-20T11:47:32;5.40;;;5.40;;
2892;SDS011;1456;51.840;12.184;2022-11-20T11:52:46;5.43;;;5.33;;
2892;SDS011;1456;51.840;12.184;2022-11-20T11:55:25;5.00;;;5.00;;
2892;SDS011;1456;51.840;12.184;2022-11-20T12:04:19;5.10;;;5.10;;
2892;SDS011;1456;51.840;12.184;2022-11-20T12:07:03;5.27;;;5.17;;
2892;SDS011;1456;51.840;12.184;2022-11-20T12:09:53;5.50;;;5.40;;
2892;SDS011;1456;51.840;12.184;2022-11-20T12:12:24;5.23;;;5.23;;
2892;SDS011;1456;51.840;12.184;2022-11-20T12:14:56;5.67;;;5.67;;
2892;SDS011;1456;51.840;12.184;2022-11-20T12:17:23;5.70;;;5.60;;
2892;SDS011;1456;51.840;12.184;2022-11-20T12:19:49;5.87;;;5.60;;
2892;SDS011;1456;51.840;12.184;2022-11-20T12:22:48;4.90;;;4.80;;
2892;SDS011;1456;51.840;12.184;2022-11-20T12:37:02;6.33;;;6.13;;
2892;SDS011;1456;51.840;12.184;2022-11-20T12:45:09;6.30;;;6.20;;
2892;SDS011;1456;51.840;12.184;2022-11-20T12:55:49;5.93;;;5.83;;
2892;SDS011;1456;51.840;12.184;2022-11-20T12:58:33;8.70;;;8.40;;
2892;SDS011;1456;51.840;12.184;2022-11-20T13:01:17;9.37;;;9.17;;
2892;SDS011;1456;51.840;12.184;2022-11-20T13:04:32;7.27;;;6.90;;
2892;SDS011;1456;51.840;12.184;2022-11-20T13:07:11;9.33;;;8.73;;
2892;SDS011;1456;51.840;12.184;2022-11-20T13:09:43;7.70;;;7.60;;
2892;SDS011;1456;51.840;12.184;2022-11-20T13:12:20;10.47;;;10.00;;
2892;SDS011;1456;51.840;12.184;2022-11-20T13:15:05;8.03;;;7.93;;
2892;SDS011;1456;51.840;12.184;2022-11-20T13:20:22;8.80;;;8.60;;
2892;SDS011;1456;51.840;12.184;2022-11-20T13:22:50;8.00;;;7.90;;
2892;SDS011;1456;51.840;12.184;2022-11-20T13:25:29;8.53;;;8.43;;
2892;SDS011;1456;51.840;12.184;2022-11-20T13:30:48;10.87;;;10.57;;
2892;SDS011;1456;51.840;12.184;2022-11-20T13:36:01;8.43;;;8.33;;
2892;SDS011;1456;51.840;12.184;2022-11-20T13:38:48;8.30;;;8.20;;
2892;SDS011;1456;51.840;12.184;2022-11-20T13:41:35;9.00;;;8.90;;
2892;SDS011;1456;51.840;12.184;2022-11-20T13:44:14;8.67;;;8.50;;
2892;SDS011;1456;51.840;12.184;2022-11-20T13:47:01;12.77;;;11.93;;
2892;SDS011;1456;51.840;12.184;2022-11-20T13:49:29;9.20;;;9.03;;
2892;SDS011;1456;51.840;12.184;2022-11-20T13:54:48;13.30;;;12.70;;
2892;SDS011;1456;51.840;12.184;2022-11-20T14:00:13;10.30;;;9.83;;
2892;SDS011;1456;51.840;12.184;2022-11-20T14:02:44;9.53;;;9.10;;
2892;SDS011;1456;51.840;12.184;2022-11-20T14:05:21;9.90;;;9.70;;
2892;SDS011;1456;51.840;12.184;2022-11-20T14:07:48;9.97;;;9.13;;
2892;SDS011;1456;51.840;12.184;2022-11-20T14:10:20;8.03;;;7.90;;
2892;SDS011;1456;51.840;12.184;2022-11-20T14:12:51;10.47;;;9.97;;
2892;SDS011;1456;51.840;12.184;2022-11-20T14:15:28;10.67;;;10.47;;
2892;SDS011;1456;51.840;12.184;2022-11-20T14:17:56;10.20;;;10.00;;
2892;SDS011;1456;51.840;12.184;2022-11-20T14:20:31;10.80;;;10.13;;
2892;SDS011;1456;51.840;12.184;2022-11-20T14:22:57;10.97;;;10.67;;
2892;SDS011;1456;51.840;12.184;2022-11-20T14:25:24;10.20;;;9.80;;
2892;SDS011;1456;51.840;12.184;2022-11-20T14:27:57;10.87;;;10.47;;
2892;SDS011;1456;51.840;12.184;2022-11-20T14:30:43;7.93;;;7.80;;
2892;SDS011;1456;51.840;12.184;2022-11-20T14:33:11;8.63;;;8.53;;
2892;SDS011;1456;51.840;12.184;2022-11-20T14:35:49;8.47;;;8.37;;
2892;SDS011;1456;51.840;12.184;2022-11-20T14:38:24;8.50;;;8.40;;
2892;SDS011;1456;51.840;12.184;2022-11-20T14:40:52;7.20;;;7.10;;
2892;SDS011;1456;51.840;12.184;2022-11-20T14:43:23;8.50;;;8.33;;
2892;SDS011;1456;51.840;12.184;2022-11-20T14:45:59;8.57;;;8.37;;
2892;SDS011;1456;51.840;12.184;2022-11-20T14:48:37;7.53;;;7.43;;
2892;SDS011;1456;51.840;12.184;2022-11-20T14:51:30;7.43;;;7.33;;
2892;SDS011;1456;51.840;12.184;2022-11-20T14:56:35;7.67;;;7.37;;
2892;SDS011;1456;51.840;12.184;2022-11-20T14:59:03;5.67;;;5.67;;
2892;SDS011;1456;51.840;12.184;2022-11-20T15:01:30;4.90;;;4.83;;
2892;SDS011;1456;51.840;12.184;2022-11-20T15:03:59;4.30;;;4.30;;
2892;SDS011;1456;51.840;12.184;2022-11-20T15:06:30;4.20;;;4.10;;
2892;SDS011;1456;51.840;12.184;2022-11-20T15:08:58;6.07;;;5.90;;
2892;SDS011;1456;51.840;12.184;2022-11-20T15:11:33;2.97;;;2.97;;
2892;SDS011;1456;51.840;12.184;2022-11-20T15:14:08;3.70;;;3.37;;
2892;SDS011;1456;51.840;12.184;2022-11-20T15:16:34;3.40;;;3.40;;
2892;SDS011;1456;51.840;12.184;2022-11-20T15:19:00;2.77;;;2.77;;
2892;SDS011;1456;51.840;12.184;2022-11-20T15:21:28;3.07;;;3.07;;
2892;SDS011;1456;51.840;12.184;2022-11-20T15:23:54;2.00;;;2.00;;
2892;SDS011;1456;51.840;12.184;2022-11-20T15:26:22;1.87;;;1.87;;
2892;SDS011;1456;51.840;12.184;2022-11-20T15:28:50;2.17;;;1.97;;
2892;SDS011;1456;51.840;12.184;2022-11-20T15:31:19;1.73;;;1.73;;
2892;SDS011;1456;51.840;12.184;2022-11-20T15:33:46;4.03;;;3.83;;
2892;SDS011;1456;51.840;12.184;2022-11-20T15:36:13;2.90;;;2.90;;
2892;SDS011;1456;51.840;12.184;2022-11-20T15:38:39;2.33;;;2.30;;
2892;SDS011;1456;51.840;12.184;2022-11-20T15:41:05;5.20;;;3.17;;
2892;SDS011;1456;51.840;12.184;2022-11-20T15:43:31;1.33;;;1.33;;
2892;SDS011;1456;51.840;12.184;2022-11-20T15:46:02;1.47;;;1.47;;
2892;SDS011;1456;51.840;12.184;2022-11-20T15:48:31;1.83;;;1.73;;
2892;SDS011;1456;51.840;12.184;2022-11-20T15:53:36;2.33;;;2.13;;
2892;SDS011;1456;51.840;12.184;2022-11-20T15:56:06;1.47;;;1.47;;
2892;SDS011;1456;51.840;12.184;2022-11-20T15:58:39;1.10;;;1.10;;
2892;SDS011;1456;51.840;12.184;2022-11-20T16:01:05;1.93;;;1.83;;
2892;SDS011;1456;51.840;12.184;2022-11-20T16:03:35;2.07;;;1.97;;
2892;SDS011;1456;51.840;12.184;2022-11-20T16:06:00;2.20;;;2.20;;
2892;SDS011;1456;51.840;12.184;2022-11-20T16:08:27;1.70;;;1.70;;
2892;SDS011;1456;51.840;12.184;2022-11-20T16:10:53;2.40;;;2.20;;
2892;SDS011;1456;51.840;12.184;2022-11-20T16:13:19;2.10;;;2.00;;
2892;SDS011;1456;51.840;12.184;2022-11-20T16:16:04;5.27;;;4.97;;
2892;SDS011;1456;51.840;12.184;2022-11-20T16:18:34;5.10;;;4.83;;
2892;SDS011;1456;51.840;12.184;2022-11-20T16:21:00;6.03;;;3.17;;
2892;SDS011;1456;51.840;12.184;2022-11-20T16:23:26;1.57;;;0.90;;
2892;SDS011;1456;51.840;12.184;2022-11-20T16:25:51;1.03;;;1.03;;
2892;SDS011;1456;51.840;12.184;2022-11-20T16:28:18;1.53;;;1.53;;
2892;SDS011;1456;51.840;12.184;2022-11-20T16:30:44;1.40;;;1.40;;
2892;SDS011;1456;51.840;12.184;2022-11-20T16:33:11;0.80;;;0.80;;
2892;SDS011;1456;51.840;12.184;2022-11-20T16:35:42;2.37;;;2.27;;
2892;SDS011;1456;51.840;12.184;2022-11-20T16:38:09;0.90;;;0.90;;
2892;SDS011;1456;51.840;12.184;2022-11-20T16:40:34;3.70;;;3.40;;
2892;SDS011;1456;51.840;12.184;2022-11-20T16:43:12;1.53;;;1.53;;
2892;SDS011;1456;51.840;12.184;2022-11-20T16:45:42;1.33;;;1.27;;
2892;SDS011;1456;51.840;12.184;2022-11-20T16:48:11;3.80;;;3.50;;
2892;SDS011;1456;51.840;12.184;2022-11-20T16:50:44;1.50;;;1.37;;
2892;SDS011;1456;51.840;12.184;2022-11-20T16:53:11;2.50;;;2.30;;
2892;SDS011;1456;51.840;12.184;2022-11-20T16:55:37;2.00;;;1.90;;
2892;SDS011;1456;51.840;12.184;2022-11-20T16:58:02;4.20;;;3.83;;
2892;SDS011;1456;51.840;12.184;2022-11-20T17:00:28;1.00;;;1.00;;
2892;SDS011;1456;51.840;12.184;2022-11-20T17:02:54;1.80;;;1.80;;
2892;SDS011;1456;51.840;12.184;2022-11-20T17:05:21;1.93;;;1.93;;